sensor_id;sensor_type;location;lat;lon;timestamp;pressure;altitude;pressure_sealevel;temperature;humidity
49827;BME280;35715;51.570;6.036;2023-01-25T00:00:09;103619.97;;;1.70;82.63
49827;BME280;35715;51.570;6.036;2023-01-25T00:02:34;103623.63;;;1.72;82.54
49827;BME280;35715;51.570;6.036;2023-01-25T00:07:47;103609.16;;;2.12;81.46
49827;BME280;35715;51.570;6.036;2023-01-25T00:10:13;103607.50;;;2.13;81.49
49827;BME280;35715;51.570;6.036;2023-01-25T00:12:38;103605.28;;;1.92;81.68
49827;BME280;35715;51.570;6.036;2023-01-25T00:17:34;103615.78;;;1.71;82.88
49827;BME280;35715;51.570;6.036;2023-01-25T00:19:59;103611.19;;;1.68;82.50
49827;BME280;35715;51.570;6.036;2023-01-25T00:22:24;103607.00;;;1.69;82.34
49827;BME280;35715;51.570;6.036;2023-01-25T00:27:38;103611.00;;;1.44;83.68
49827;BME280;35715;51.570;6.036;2023-01-25T00:30:04;103606.84;;;1.45;84.13
49827;BME280;35715;51.570;6.036;2023-01-25T00:32:39;103607.28;;;1.48;83.52
49827;BME280;35715;51.570;6.036;2023-01-25T00:35:10;103600.31;;;1.64;83.24
49827;BME280;35715;51.570;6.036;2023-01-25T00:37:38;103599.16;;;1.56;82.86
49827;BME280;35715;51.570;6.036;2023-01-25T00:40:04;103596.31;;;1.77;82.35
49827;BME280;35715;51.570;6.036;2023-01-25T00:42:29;103591.22;;;1.77;81.86
49827;BME280;35715;51.570;6.036;2023-01-25T00:44:56;103605.16;;;1.68;81.26
49827;BME280;35715;51.570;6.036;2023-01-25T00:47:21;103599.88;;;1.55;83.04
49827;BME280;35715;51.570;6.036;2023-01-25T00:49:46;103591.34;;;1.37;83.46
49827;BME280;35715;51.570;6.036;2023-01-25T00:52:11;103589.72;;;1.44;83.32
49827;BME280;35715;51.570;6.036;2023-01-25T00:57:21;103596.94;;;1.23;83.98
49827;BME280;35715;51.570;6.036;2023-01-25T00:59:47;103591.13;;;1.36;83.79
49827;BME280;35715;51.570;6.036;2023-01-25T01:02:12;103599.22;;;1.39;82.83
49827;BME280;35715;51.570;6.036;2023-01-25T01:04:41;103595.69;;;1.67;82.67
49827;BME280;35715;51.570;6.036;2023-01-25T01:07:07;103584.03;;;1.80;81.48
49827;BME280;35715;51.570;6.036;2023-01-25T01:09:33;103585.91;;;1.81;81.16
49827;BME280;35715;51.570;6.036;2023-01-25T01:11:58;103585.22;;;1.76;81.75
49827;BME280;35715;51.570;6.036;2023-01-25T01:14:28;103578.03;;;1.85;81.87
49827;BME280;35715;51.570;6.036;2023-01-25T01:16:53;103576.16;;;1.90;81.49
49827;BME280;35715;51.570;6.036;2023-01-25T01:19:18;103575.38;;;2.02;81.41
49827;BME280;35715;51.570;6.036;2023-01-25T01:21:44;103572.66;;;1.95;80.59
49827;BME280;35715;51.570;6.036;2023-01-25T01:24:09;103569.84;;;2.05;80.69
49827;BME280;35715;51.570;6.036;2023-01-25T01:26:34;103571.63;;;2.11;80.78
49827;BME280;35715;51.570;6.036;2023-01-25T01:29:00;103573.72;;;2.08;80.59
49827;BME280;35715;51.570;6.036;2023-01-25T01:31:25;103575.78;;;2.17;80.62
49827;BME280;35715;51.570;6.036;2023-01-25T01:34:00;103571.66;;;2.06;80.55
49827;BME280;35715;51.570;6.036;2023-01-25T01:36:27;103574.94;;;1.99;80.48
49827;BME280;35715;51.570;6.036;2023-01-25T01:38:53;103574.34;;;1.77;81.63
49827;BME280;35715;51.570;6.036;2023-01-25T01:41:20;103593.16;;;1.50;81.29
49827;BME280;35715;51.570;6.036;2023-01-25T01:43:47;103585.06;;;1.52;82.23
49827;BME280;35715;51.570;6.036;2023-01-25T01:52:03;103588.34;;;1.46;81.47
49827;BME280;35715;51.570;6.036;2023-01-25T01:54:36;103586.72;;;1.46;81.54
49827;BME280;35715;51.570;6.036;2023-01-25T01:59:40;103571.13;;;1.73;81.71
49827;BME280;35715;51.570;6.036;2023-01-25T02:02:08;103567.81;;;1.91;81.50
49827;BME280;35715;51.570;6.036;2023-01-25T02:04:33;103570.31;;;2.02;81.13
49827;BME280;35715;51.570;6.036;2023-01-25T02:09:25;103568.09;;;1.75;80.55
49827;BME280;35715;51.570;6.036;2023-01-25T02:11:52;103575.81;;;1.58;82.13
49827;BME280;35715;51.570;6.036;2023-01-25T02:14:18;103575.63;;;1.40;82.42
49827;BME280;35715;51.570;6.036;2023-01-25T02:16:44;103576.53;;;1.46;82.57
49827;BME280;35715;51.570;6.036;2023-01-25T02:19:11;103578.34;;;1.64;82.03
49827;BME280;35715;51.570;6.036;2023-01-25T02:21:38;103567.84;;;1.85;81.52
49827;BME280;35715;51.570;6.036;2023-01-25T02:24:11;103567.75;;;2.02;81.01
49827;BME280;35715;51.570;6.036;2023-01-25T02:26:40;103562.41;;;2.12;80.52
49827;BME280;35715;51.570;6.036;2023-01-25T02:29:07;103561.19;;;2.21;80.38
49827;BME280;35715;51.570;6.036;2023-01-25T02:31:34;103556.09;;;2.21;79.99
49827;BME280;35715;51.570;6.036;2023-01-25T02:33:59;103561.13;;;2.27;79.93
49827;BME280;35715;51.570;6.036;2023-01-25T02:36:29;103551.81;;;2.33;80.26
49827;BME280;35715;51.570;6.036;2023-01-25T02:39:16;103551.38;;;2.30;79.81
49827;BME280;35715;51.570;6.036;2023-01-25T02:41:42;103555.75;;;1.95;80.05
49827;BME280;35715;51.570;6.036;2023-01-25T02:46:34;103565.22;;;1.44;81.39
49827;BME280;35715;51.570;6.036;2023-01-25T02:49:00;103559.69;;;1.35;81.78
49827;BME280;35715;51.570;6.036;2023-01-25T02:51:27;103549.00;;;1.44;81.71
49827;BME280;35715;51.570;6.036;2023-01-25T02:53:52;103551.16;;;1.29;82.86
49827;BME280;35715;51.570;6.036;2023-01-25T02:56:18;103553.00;;;1.24;82.58
49827;BME280;35715;51.570;6.036;2023-01-25T02:58:43;103552.69;;;1.51;82.00
49827;BME280;35715;51.570;6.036;2023-01-25T03:01:09;103536.72;;;1.58;80.94
49827;BME280;35715;51.570;6.036;2023-01-25T03:03:34;103538.09;;;1.62;80.68
49827;BME280;35715;51.570;6.036;2023-01-25T03:06:00;103535.56;;;1.56;81.22
49827;BME280;35715;51.570;6.036;2023-01-25T03:08:25;103536.03;;;1.53;81.33
49827;BME280;35715;51.570;6.036;2023-01-25T03:10:50;103522.88;;;1.45;81.46
49827;BME280;35715;51.570;6.036;2023-01-25T03:13:15;103526.41;;;1.34;82.33
49827;BME280;35715;51.570;6.036;2023-01-25T03:15:41;103538.66;;;1.36;83.39
49827;BME280;35715;51.570;6.036;2023-01-25T03:18:06;103538.22;;;1.16;82.51
49827;BME280;35715;51.570;6.036;2023-01-25T03:20:31;103537.31;;;1.16;82.79
49827;BME280;35715;51.570;6.036;2023-01-25T03:22:57;103526.41;;;1.34;81.70
49827;BME280;35715;51.570;6.036;2023-01-25T03:25:22;103524.47;;;1.50;81.16
49827;BME280;35715;51.570;6.036;2023-01-25T03:27:47;103521.44;;;1.64;81.20
49827;BME280;35715;51.570;6.036;2023-01-25T03:30:12;103524.38;;;1.78;80.95
49827;BME280;35715;51.570;6.036;2023-01-25T03:32:38;103515.06;;;1.84;80.41
49827;BME280;35715;51.570;6.036;2023-01-25T03:35:04;103519.16;;;1.95;80.92
49827;BME280;35715;51.570;6.036;2023-01-25T03:37:30;103520.72;;;2.06;81.09
49827;BME280;35715;51.570;6.036;2023-01-25T03:39:55;103514.59;;;1.92;79.53
49827;BME280;35715;51.570;6.036;2023-01-25T03:42:21;103509.06;;;1.84;80.32
49827;BME280;35715;51.570;6.036;2023-01-25T03:44:57;103506.19;;;1.58;80.89
49827;BME280;35715;51.570;6.036;2023-01-25T03:47:22;103509.28;;;1.27;81.64
49827;BME280;35715;51.570;6.036;2023-01-25T03:49:47;103512.38;;;1.08;82.19
49827;BME280;35715;51.570;6.036;2023-01-25T03:52:12;103503.81;;;1.07;83.14
49827;BME280;35715;51.570;6.036;2023-01-25T03:54:43;103508.41;;;1.15;82.55
49827;BME280;35715;51.570;6.036;2023-01-25T03:57:08;103510.91;;;1.27;81.97
49827;BME280;35715;51.570;6.036;2023-01-25T03:59:33;103502.09;;;1.36;82.01
49827;BME280;35715;51.570;6.036;2023-01-25T04:01:58;103496.75;;;1.46;81.15
49827;BME280;35715;51.570;6.036;2023-01-25T04:07:08;103511.66;;;1.14;82.25
49827;BME280;35715;51.570;6.036;2023-01-25T04:09:33;103504.03;;;1.09;82.14
49827;BME280;35715;51.570;6.036;2023-01-25T04:11:58;103500.75;;;1.27;81.94
49827;BME280;35715;51.570;6.036;2023-01-25T04:14:24;103489.16;;;1.40;81.81
49827;BME280;35715;51.570;6.036;2023-01-25T04:16:49;103498.25;;;1.10;83.29
49827;BME280;35715;51.570;6.036;2023-01-25T04:19:14;103497.13;;;0.91;83.96
49827;BME280;35715;51.570;6.036;2023-01-25T04:21:39;103493.19;;;0.98;83.66
49827;BME280;35715;51.570;6.036;2023-01-25T04:24:05;103489.72;;;0.98;83.68
49827;BME280;35715;51.570;6.036;2023-01-25T04:26:30;103490.63;;;0.98;83.40
49827;BME280;35715;51.570;6.036;2023-01-25T04:28:55;103484.59;;;1.20;82.85
49827;BME280;35715;51.570;6.036;2023-01-25T04:31:20;103482.41;;;1.40;82.38
49827;BME280;35715;51.570;6.036;2023-01-25T04:33:47;103480.97;;;1.54;81.66
49827;BME280;35715;51.570;6.036;2023-01-25T04:36:12;103474.88;;;1.70;82.02
49827;BME280;35715;51.570;6.036;2023-01-25T04:38:37;103469.03;;;1.83;81.52
49827;BME280;35715;51.570;6.036;2023-01-25T04:41:02;103474.78;;;1.87;80.72
49827;BME280;35715;51.570;6.036;2023-01-25T04:43:39;103469.19;;;1.95;80.98
49827;BME280;35715;51.570;6.036;2023-01-25T04:46:04;103462.66;;;2.03;80.75
49827;BME280;35715;51.570;6.036;2023-01-25T04:48:30;103464.00;;;2.07;80.53
49827;BME280;35715;51.570;6.036;2023-01-25T04:50:55;103464.03;;;2.01;79.71
49827;BME280;35715;51.570;6.036;2023-01-25T04:53:27;103458.72;;;2.00;79.72
49827;BME280;35715;51.570;6.036;2023-01-25T04:55:52;103448.06;;;2.02;79.83
49827;BME280;35715;51.570;6.036;2023-01-25T04:58:17;103453.81;;;2.07;79.96
49827;BME280;35715;51.570;6.036;2023-01-25T05:00:43;103459.13;;;2.08;80.04
49827;BME280;35715;51.570;6.036;2023-01-25T05:03:08;103455.44;;;2.12;80.04
49827;BME280;35715;51.570;6.036;2023-01-25T05:05:35;103446.84;;;2.11;79.67
49827;BME280;35715;51.570;6.036;2023-01-25T05:08:00;103447.16;;;2.02;79.00
49827;BME280;35715;51.570;6.036;2023-01-25T05:10:25;103450.22;;;1.93;78.73
49827;BME280;35715;51.570;6.036;2023-01-25T05:12:50;103446.75;;;1.93;79.42
49827;BME280;35715;51.570;6.036;2023-01-25T05:15:17;103449.72;;;2.02;79.78
49827;BME280;35715;51.570;6.036;2023-01-25T05:17:43;103442.97;;;2.02;79.15
49827;BME280;35715;51.570;6.036;2023-01-25T05:20:08;103442.28;;;2.03;78.79
49827;BME280;35715;51.570;6.036;2023-01-25T05:22:33;103444.56;;;2.07;79.08
49827;BME280;35715;51.570;6.036;2023-01-25T05:25:01;103449.38;;;2.11;78.88
49827;BME280;35715;51.570;6.036;2023-01-25T05:27:27;103452.31;;;1.90;77.64
49827;BME280;35715;51.570;6.036;2023-01-25T05:29:53;103450.50;;;1.89;78.88
49827;BME280;35715;51.570;6.036;2023-01-25T05:32:19;103451.63;;;1.91;79.12
49827;BME280;35715;51.570;6.036;2023-01-25T05:34:51;103455.28;;;1.99;79.50
49827;BME280;35715;51.570;6.036;2023-01-25T05:37:18;103458.03;;;2.01;79.36
49827;BME280;35715;51.570;6.036;2023-01-25T05:39:43;103446.44;;;2.03;79.26
49827;BME280;35715;51.570;6.036;2023-01-25T05:42:15;103451.06;;;2.05;79.36
49827;BME280;35715;51.570;6.036;2023-01-25T05:44:49;103447.78;;;2.12;79.34
49827;BME280;35715;51.570;6.036;2023-01-25T05:47:15;103453.56;;;2.11;78.53
49827;BME280;35715;51.570;6.036;2023-01-25T05:49:40;103450.81;;;2.09;78.45
49827;BME280;35715;51.570;6.036;2023-01-25T05:52:06;103455.88;;;2.15;78.99
49827;BME280;35715;51.570;6.036;2023-01-25T05:57:23;103441.94;;;2.19;78.47
49827;BME280;35715;51.570;6.036;2023-01-25T05:59:48;103445.69;;;2.15;78.48
49827;BME280;35715;51.570;6.036;2023-01-25T06:02:13;103438.56;;;2.07;77.71
49827;BME280;35715;51.570;6.036;2023-01-25T06:04:48;103438.75;;;2.08;78.08
49827;BME280;35715;51.570;6.036;2023-01-25T06:07:13;103440.22;;;2.01;77.71
49827;BME280;35715;51.570;6.036;2023-01-25T06:09:38;103443.44;;;2.00;77.79
49827;BME280;35715;51.570;6.036;2023-01-25T06:12:03;103439.25;;;2.06;78.33
49827;BME280;35715;51.570;6.036;2023-01-25T06:14:41;103438.75;;;2.08;78.16
49827;BME280;35715;51.570;6.036;2023-01-25T06:17:06;103441.78;;;2.06;77.71
49827;BME280;35715;51.570;6.036;2023-01-25T06:19:31;103443.88;;;2.03;77.60
49827;BME280;35715;51.570;6.036;2023-01-25T06:21:56;103440.19;;;2.06;78.14
49827;BME280;35715;51.570;6.036;2023-01-25T06:24:23;103441.56;;;2.04;77.82
49827;BME280;35715;51.570;6.036;2023-01-25T06:26:48;103434.00;;;1.99;77.74
49827;BME280;35715;51.570;6.036;2023-01-25T06:29:13;103435.13;;;2.01;77.95
49827;BME280;35715;51.570;6.036;2023-01-25T06:31:38;103436.31;;;1.97;77.54
49827;BME280;35715;51.570;6.036;2023-01-25T06:37:02;103431.16;;;2.03;77.97
49827;BME280;35715;51.570;6.036;2023-01-25T06:39:27;103440.66;;;2.04;77.81
49827;BME280;35715;51.570;6.036;2023-01-25T06:41:53;103432.47;;;1.82;76.77
49827;BME280;35715;51.570;6.036;2023-01-25T06:46:49;103434.59;;;1.79;77.40
49827;BME280;35715;51.570;6.036;2023-01-25T06:49:14;103439.19;;;1.82;77.47
49827;BME280;35715;51.570;6.036;2023-01-25T06:51:39;103442.91;;;1.78;77.12
49827;BME280;35715;51.570;6.036;2023-01-25T06:54:07;103438.56;;;1.71;76.69
49827;BME280;35715;51.570;6.036;2023-01-25T06:56:32;103434.72;;;1.56;76.40
49827;BME280;35715;51.570;6.036;2023-01-25T06:58:57;103437.81;;;1.42;77.32
49827;BME280;35715;51.570;6.036;2023-01-25T07:01:23;103436.28;;;1.15;78.52
49827;BME280;35715;51.570;6.036;2023-01-25T07:03:57;103440.00;;;1.17;79.21
49827;BME280;35715;51.570;6.036;2023-01-25T07:06:23;103443.13;;;1.38;79.71
49827;BME280;35715;51.570;6.036;2023-01-25T07:08:48;103442.63;;;1.47;78.76
49827;BME280;35715;51.570;6.036;2023-01-25T07:11:14;103446.78;;;1.46;78.56
49827;BME280;35715;51.570;6.036;2023-01-25T07:13:41;103444.16;;;1.57;79.21
49827;BME280;35715;51.570;6.036;2023-01-25T07:16:07;103430.97;;;1.60;78.51
49827;BME280;35715;51.570;6.036;2023-01-25T07:18:34;103440.44;;;1.67;78.70
49827;BME280;35715;51.570;6.036;2023-01-25T07:21:03;103436.69;;;1.76;78.76
49827;BME280;35715;51.570;6.036;2023-01-25T07:23:28;103428.78;;;1.80;78.25
49827;BME280;35715;51.570;6.036;2023-01-25T07:25:56;103426.66;;;1.83;78.48
49827;BME280;35715;51.570;6.036;2023-01-25T07:28:22;103425.06;;;1.84;78.20
49827;BME280;35715;51.570;6.036;2023-01-25T07:30:47;103431.31;;;1.80;77.96
49827;BME280;35715;51.570;6.036;2023-01-25T07:33:13;103422.78;;;1.80;77.77
49827;BME280;35715;51.570;6.036;2023-01-25T07:35:41;103419.09;;;1.77;77.44
49827;BME280;35715;51.570;6.036;2023-01-25T07:38:06;103420.97;;;1.73;77.12
49827;BME280;35715;51.570;6.036;2023-01-25T07:40:32;103425.09;;;1.78;77.80
49827;BME280;35715;51.570;6.036;2023-01-25T07:42:57;103413.50;;;1.80;77.46
49827;BME280;35715;51.570;6.036;2023-01-25T07:45:27;103417.00;;;1.81;77.49
49827;BME280;35715;51.570;6.036;2023-01-25T07:47:55;103418.16;;;1.77;77.34
49827;BME280;35715;51.570;6.036;2023-01-25T07:50:21;103412.41;;;1.72;77.41
49827;BME280;35715;51.570;6.036;2023-01-25T07:52:46;103407.44;;;1.50;76.98
49827;BME280;35715;51.570;6.036;2023-01-25T07:55:13;103408.47;;;1.33;78.07
49827;BME280;35715;51.570;6.036;2023-01-25T07:57:38;103411.66;;;1.44;78.52
49827;BME280;35715;51.570;6.036;2023-01-25T08:00:03;103408.56;;;1.57;78.69
49827;BME280;35715;51.570;6.036;2023-01-25T08:02:31;103416.81;;;1.68;78.63
49827;BME280;35715;51.570;6.036;2023-01-25T08:04:57;103417.25;;;1.71;78.09
49827;BME280;35715;51.570;6.036;2023-01-25T08:07:22;103417.00;;;1.75;78.13
49827;BME280;35715;51.570;6.036;2023-01-25T08:09:47;103418.16;;;1.77;78.06
49827;BME280;35715;51.570;6.036;2023-01-25T08:12:13;103419.56;;;1.75;77.53
49827;BME280;35715;51.570;6.036;2023-01-25T08:14:38;103419.09;;;1.77;77.58
49827;BME280;35715;51.570;6.036;2023-01-25T08:17:03;103427.19;;;1.75;77.19
49827;BME280;35715;51.570;6.036;2023-01-25T08:19:29;103423.75;;;1.74;77.15
49827;BME280;35715;51.570;6.036;2023-01-25T08:21:54;103419.09;;;1.77;77.42
49827;BME280;35715;51.570;6.036;2023-01-25T08:24:21;103412.56;;;1.85;77.85
49827;BME280;35715;51.570;6.036;2023-01-25T08:26:46;103409.97;;;1.91;77.79
49827;BME280;35715;51.570;6.036;2023-01-25T08:29:12;103407.88;;;1.94;77.56
49827;BME280;35715;51.570;6.036;2023-01-25T08:31:39;103407.88;;;1.94;77.31
49827;BME280;35715;51.570;6.036;2023-01-25T08:34:23;103408.13;;;1.90;77.01
49827;BME280;35715;51.570;6.036;2023-01-25T08:36:48;103405.88;;;1.80;76.76
49827;BME280;35715;51.570;6.036;2023-01-25T08:39:14;103398.66;;;1.83;76.97
49827;BME280;35715;51.570;6.036;2023-01-25T08:41:39;103397.28;;;1.85;77.05
49827;BME280;35715;51.570;6.036;2023-01-25T08:44:06;103392.66;;;1.83;76.59
49827;BME280;35715;51.570;6.036;2023-01-25T08:46:32;103392.84;;;1.90;76.79
49827;BME280;35715;51.570;6.036;2023-01-25T08:48:58;103397.47;;;1.92;76.57
49827;BME280;35715;51.570;6.036;2023-01-25T08:51:24;103400.00;;;1.92;76.68
49827;BME280;35715;51.570;6.036;2023-01-25T08:54:03;103396.31;;;1.90;76.65
49827;BME280;35715;51.570;6.036;2023-01-25T08:56:29;103393.06;;;1.91;76.73
49827;BME280;35715;51.570;6.036;2023-01-25T08:58:54;103390.06;;;1.94;77.05
49827;BME280;35715;51.570;6.036;2023-01-25T09:01:20;103387.72;;;1.95;77.10
49827;BME280;35715;51.570;6.036;2023-01-25T09:03:52;103387.22;;;1.98;76.85
49827;BME280;35715;51.570;6.036;2023-01-25T09:06:18;103391.78;;;1.76;76.14
49827;BME280;35715;51.570;6.036;2023-01-25T09:08:44;103387.22;;;1.68;77.42
49827;BME280;35715;51.570;6.036;2023-01-25T09:11:12;103391.06;;;1.42;77.12
49827;BME280;35715;51.570;6.036;2023-01-25T09:16:17;103380.44;;;1.39;77.93
49827;BME280;35715;51.570;6.036;2023-01-25T09:18:43;103378.00;;;1.22;78.43
49827;BME280;35715;51.570;6.036;2023-01-25T09:21:09;103373.88;;;1.17;78.60
49827;BME280;35715;51.570;6.036;2023-01-25T09:23:37;103368.56;;;1.15;79.29
49827;BME280;35715;51.570;6.036;2023-01-25T09:26:02;103364.81;;;1.24;79.26
49827;BME280;35715;51.570;6.036;2023-01-25T09:28:28;103370.03;;;1.43;78.95
49827;BME280;35715;51.570;6.036;2023-01-25T09:30:57;103364.38;;;1.57;78.71
49827;BME280;35715;51.570;6.036;2023-01-25T09:33:24;103368.00;;;1.70;78.53
49827;BME280;35715;51.570;6.036;2023-01-25T09:35:49;103366.81;;;1.74;77.94
49827;BME280;35715;51.570;6.036;2023-01-25T09:38:14;103372.13;;;1.75;77.68
49827;BME280;35715;51.570;6.036;2023-01-25T09:40:40;103361.47;;;1.78;77.73
49827;BME280;35715;51.570;6.036;2023-01-25T09:43:12;103368.84;;;1.82;77.78
49827;BME280;35715;51.570;6.036;2023-01-25T09:45:43;103370.94;;;1.79;77.46
49827;BME280;35715;51.570;6.036;2023-01-25T09:48:12;103370.28;;;1.74;77.12
49827;BME280;35715;51.570;6.036;2023-01-25T09:50:51;103376.50;;;1.76;77.37
49827;BME280;35715;51.570;6.036;2023-01-25T09:56:09;103369.06;;;1.84;77.16
49827;BME280;35715;51.570;6.036;2023-01-25T09:58:38;103359.31;;;1.87;77.50
49827;BME280;35715;51.570;6.036;2023-01-25T10:01:08;103369.03;;;1.89;77.09
49827;BME280;35715;51.570;6.036;2023-01-25T10:06:16;103365.06;;;1.91;77.05
49827;BME280;35715;51.570;6.036;2023-01-25T10:11:28;103366.91;;;1.92;76.90
49827;BME280;35715;51.570;6.036;2023-01-25T10:16:24;103354.44;;;1.88;76.50
49827;BME280;35715;51.570;6.036;2023-01-25T10:18:55;103350.59;;;1.79;76.10
49827;BME280;35715;51.570;6.036;2023-01-25T10:21:26;103345.47;;;1.85;76.52
49827;BME280;35715;51.570;6.036;2023-01-25T10:24:09;103343.88;;;1.80;76.29
49827;BME280;35715;51.570;6.036;2023-01-25T10:26:38;103351.47;;;1.85;76.39
49827;BME280;35715;51.570;6.036;2023-01-25T10:29:09;103337.06;;;1.91;76.37
49827;BME280;35715;51.570;6.036;2023-01-25T10:31:37;103343.78;;;1.91;76.49
49827;BME280;35715;51.570;6.036;2023-01-25T10:37:00;103329.59;;;1.99;76.97
49827;BME280;35715;51.570;6.036;2023-01-25T10:39:26;103330.72;;;2.01;76.68
49827;BME280;35715;51.570;6.036;2023-01-25T10:42:00;103327.91;;;2.05;76.88
49827;BME280;35715;51.570;6.036;2023-01-25T10:44:32;103323.53;;;2.04;76.61
49827;BME280;35715;51.570;6.036;2023-01-25T10:49:42;103308.50;;;2.00;76.95
49827;BME280;35715;51.570;6.036;2023-01-25T10:54:38;103304.13;;;1.99;76.78
49827;BME280;35715;51.570;6.036;2023-01-25T10:57:05;103291.25;;;1.91;76.67
49827;BME280;35715;51.570;6.036;2023-01-25T10:59:30;103287.78;;;1.91;76.39
49827;BME280;35715;51.570;6.036;2023-01-25T11:01:57;103283.78;;;1.99;77.00
49827;BME280;35715;51.570;6.036;2023-01-25T11:04:42;103274.06;;;1.96;76.16
49827;BME280;35715;51.570;6.036;2023-01-25T11:07:24;103271.25;;;2.00;76.40
49827;BME280;35715;51.570;6.036;2023-01-25T11:09:49;103276.47;;;2.07;76.19
49827;BME280;35715;51.570;6.036;2023-01-25T11:12:15;103261.88;;;2.12;76.02
49827;BME280;35715;51.570;6.036;2023-01-25T11:14:45;103260.34;;;2.01;75.56
49827;BME280;35715;51.570;6.036;2023-01-25T11:17:21;103255.69;;;2.04;75.78
49827;BME280;35715;51.570;6.036;2023-01-25T11:19:47;103250.72;;;1.93;75.15
49827;BME280;35715;51.570;6.036;2023-01-25T11:24:45;103237.78;;;1.91;75.50
49827;BME280;35715;51.570;6.036;2023-01-25T11:29:36;103227.34;;;1.95;76.00
49827;BME280;35715;51.570;6.036;2023-01-25T11:32:01;103220.59;;;1.96;75.54
49827;BME280;35715;51.570;6.036;2023-01-25T11:34:28;103213.59;;;2.01;75.86
49827;BME280;35715;51.570;6.036;2023-01-25T11:36:56;103207.09;;;2.03;75.59
49827;BME280;35715;51.570;6.036;2023-01-25T11:39:41;103207.59;;;2.00;75.44
49827;BME280;35715;51.570;6.036;2023-01-25T11:47:20;103197.09;;;1.86;75.29
49827;BME280;35715;51.570;6.036;2023-01-25T11:52:17;103181.19;;;1.81;75.14
49827;BME280;35715;51.570;6.036;2023-01-25T11:57:36;103161.59;;;1.74;75.21
49827;BME280;35715;51.570;6.036;2023-01-25T12:20:36;103114.72;;;1.85;74.70
49827;BME280;35715;51.570;6.036;2023-01-25T12:36:26;103067.00;;;2.08;75.16
49827;BME280;35715;51.570;6.036;2023-01-25T12:39:02;103071.44;;;2.04;74.07
49827;BME280;35715;51.570;6.036;2023-01-25T12:49:10;103040.69;;;2.02;73.48
49827;BME280;35715;51.570;6.036;2023-01-25T12:51:37;103039.22;;;1.91;72.80
49827;BME280;35715;51.570;6.036;2023-01-25T12:54:14;103038.53;;;1.92;73.58
49827;BME280;35715;51.570;6.036;2023-01-25T12:56:41;103032.03;;;1.76;73.46
49827;BME280;35715;51.570;6.036;2023-01-25T12:59:22;103028.25;;;1.80;74.66
49827;BME280;35715;51.570;6.036;2023-01-25T13:01:53;103017.88;;;1.78;74.41
49827;BME280;35715;51.570;6.036;2023-01-25T13:11:45;103005.75;;;2.01;74.92
49827;BME280;35715;51.570;6.036;2023-01-25T13:17:19;103002.66;;;1.91;74.48
49827;BME280;35715;51.570;6.036;2023-01-25T13:19:52;102995.38;;;1.81;73.84
49827;BME280;35715;51.570;6.036;2023-01-25T13:25:07;102986.47;;;1.72;74.45
49827;BME280;35715;51.570;6.036;2023-01-25T13:27:34;102985.38;;;1.70;74.65
49827;BME280;35715;51.570;6.036;2023-01-25T13:30:02;102985.84;;;1.67;74.69
49827;BME280;35715;51.570;6.036;2023-01-25T13:34:57;102985.47;;;1.77;75.74
49827;BME280;35715;51.570;6.036;2023-01-25T13:37:29;102982.25;;;1.78;75.01
49827;BME280;35715;51.570;6.036;2023-01-25T13:40:05;102975.31;;;1.77;74.70
49827;BME280;35715;51.570;6.036;2023-01-25T13:42:57;102974.38;;;1.76;74.94
49827;BME280;35715;51.570;6.036;2023-01-25T13:45:34;102972.06;;;1.78;74.93
49827;BME280;35715;51.570;6.036;2023-01-25T13:48:02;102961.94;;;1.91;75.28
49827;BME280;35715;51.570;6.036;2023-01-25T13:50:31;102960.94;;;1.96;74.76
49827;BME280;35715;51.570;6.036;2023-01-25T13:53:03;102952.81;;;1.99;74.76
49827;BME280;35715;51.570;6.036;2023-01-25T13:55:39;102952.38;;;1.95;74.70
49827;BME280;35715;51.570;6.036;2023-01-25T13:58:25;102949.09;;;1.97;74.60
49827;BME280;35715;51.570;6.036;2023-01-25T14:00:54;102950.94;;;1.98;74.61
49827;BME280;35715;51.570;6.036;2023-01-25T14:03:23;102945.84;;;1.98;74.40
49827;BME280;35715;51.570;6.036;2023-01-25T14:05:50;102941.25;;;1.95;74.12
49827;BME280;35715;51.570;6.036;2023-01-25T14:08:17;102938.00;;;1.96;74.57
49827;BME280;35715;51.570;6.036;2023-01-25T14:10:42;102942.75;;;1.87;74.24
49827;BME280;35715;51.570;6.036;2023-01-25T14:13:11;102936.78;;;1.87;74.82
49827;BME280;35715;51.570;6.036;2023-01-25T14:15:52;102931.81;;;1.94;74.77
49827;BME280;35715;51.570;6.036;2023-01-25T14:18:18;102934.16;;;1.92;74.57
49827;BME280;35715;51.570;6.036;2023-01-25T14:20:45;102942.22;;;1.77;74.09
49827;BME280;35715;51.570;6.036;2023-01-25T14:23:27;102941.38;;;1.71;74.06
49827;BME280;35715;51.570;6.036;2023-01-25T14:25:53;102950.59;;;1.76;74.37
49827;BME280;35715;51.570;6.036;2023-01-25T14:28:20;102939.56;;;1.70;74.30
49827;BME280;35715;51.570;6.036;2023-01-25T14:30:52;102948.69;;;1.62;74.45
49827;BME280;35715;51.570;6.036;2023-01-25T14:33:24;102944.59;;;1.57;74.85
49827;BME280;35715;51.570;6.036;2023-01-25T14:35:50;102938.38;;;1.55;74.85
49827;BME280;35715;51.570;6.036;2023-01-25T14:38:24;102941.97;;;1.63;75.51
49827;BME280;35715;51.570;6.036;2023-01-25T14:40:52;102929.38;;;1.70;75.61
49827;BME280;35715;51.570;6.036;2023-01-25T14:43:18;102935.53;;;1.77;74.85
49827;BME280;35715;51.570;6.036;2023-01-25T14:51:01;102933.47;;;1.75;74.87
49827;BME280;35715;51.570;6.036;2023-01-25T14:53:27;102929.59;;;1.71;74.78
49827;BME280;35715;51.570;6.036;2023-01-25T14:55:52;102933.84;;;1.65;74.80
49827;BME280;35715;51.570;6.036;2023-01-25T14:58:19;102918.00;;;1.73;75.27
49827;BME280;35715;51.570;6.036;2023-01-25T15:00:54;102907.81;;;1.73;75.15
49827;BME280;35715;51.570;6.036;2023-01-25T15:03:21;102905.53;;;1.69;74.84
49827;BME280;35715;51.570;6.036;2023-01-25T15:05:47;102899.06;;;1.71;74.92
49827;BME280;35715;51.570;6.036;2023-01-25T15:08:13;102895.38;;;1.69;75.13
49827;BME280;35715;51.570;6.036;2023-01-25T15:10:49;102894.53;;;1.63;75.18
49827;BME280;35715;51.570;6.036;2023-01-25T15:21:10;102896.53;;;1.53;75.39
49827;BME280;35715;51.570;6.036;2023-01-25T15:23:42;102892.16;;;1.52;75.53